sensor_id;sensor_type;location;lat;lon;timestamp;P1;durP1;ratioP1;P2;durP2;ratioP2
50301;SDS011;36550;50.472;19.744;2023-09-19T00:00:44;15.00;;;12.10;;
50301;SDS011;36550;50.472;19.744;2023-09-19T00:03:30;15.50;;;11.40;;
50301;SDS011;36550;50.472;19.744;2023-09-19T00:06:14;14.50;;;11.20;;
50301;SDS011;36550;50.472;19.744;2023-09-19T00:08:59;14.50;;;11.50;;
50301;SDS011;36550;50.472;19.744;2023-09-19T00:11:44;17.20;;;11.60;;
50301;SDS011;36550;50.472;19.744;2023-09-19T00:14:28;18.10;;;12.60;;
50301;SDS011;36550;50.472;19.744;2023-09-19T00:17:12;17.10;;;12.00;;
50301;SDS011;36550;50.472;19.744;2023-09-19T00:19:56;17.50;;;11.50;;
50301;SDS011;36550;50.472;19.744;2023-09-19T00:22:40;18.60;;;11.90;;
50301;SDS011;36550;50.472;19.744;2023-09-19T00:25:28;17.60;;;12.00;;
50301;SDS011;36550;50.472;19.744;2023-09-19T00:28:12;19.80;;;13.30;;
50301;SDS011;36550;50.472;19.744;2023-09-19T00:30:56;15.70;;;12.10;;
50301;SDS011;36550;50.472;19.744;2023-09-19T00:33:41;20.80;;;13.20;;
50301;SDS011;36550;50.472;19.744;2023-09-19T00:36:25;17.80;;;14.70;;
50301;SDS011;36550;50.472;19.744;2023-09-19T00:39:09;21.10;;;14.40;;
50301;SDS011;36550;50.472;19.744;2023-09-19T00:41:54;21.40;;;14.40;;
50301;SDS011;36550;50.472;19.744;2023-09-19T00:44:38;21.80;;;14.70;;
50301;SDS011;36550;50.472;19.744;2023-09-19T00:47:23;20.40;;;13.20;;
50301;SDS011;36550;50.472;19.744;2023-09-19T00:50:09;17.50;;;13.50;;
50301;SDS011;36550;50.472;19.744;2023-09-19T00:52:55;17.50;;;12.50;;
50301;SDS011;36550;50.472;19.744;2023-09-19T00:55:41;19.20;;;13.90;;
50301;SDS011;36550;50.472;19.744;2023-09-19T00:58:26;19.00;;;14.00;;
50301;SDS011;36550;50.472;19.744;2023-09-19T01:01:15;20.50;;;13.70;;
50301;SDS011;36550;50.472;19.744;2023-09-19T01:04:01;20.50;;;15.30;;
50301;SDS011;36550;50.472;19.744;2023-09-19T01:06:45;20.50;;;14.90;;
50301;SDS011;36550;50.472;19.744;2023-09-19T01:09:30;17.60;;;14.00;;
50301;SDS011;36550;50.472;19.744;2023-09-19T01:12:15;19.10;;;14.00;;
50301;SDS011;36550;50.472;19.744;2023-09-19T01:15:17;19.90;;;13.80;;
50301;SDS011;36550;50.472;19.744;2023-09-19T01:21:34;20.60;;;15.40;;
50301;SDS011;36550;50.472;19.744;2023-09-19T01:30:29;20.80;;;13.80;;
50301;SDS011;36550;50.472;19.744;2023-09-19T01:33:16;19.90;;;14.40;;
50301;SDS011;36550;50.472;19.744;2023-09-19T01:36:00;21.00;;;14.00;;
50301;SDS011;36550;50.472;19.744;2023-09-19T01:38:45;20.50;;;14.80;;
50301;SDS011;36550;50.472;19.744;2023-09-19T01:41:33;19.80;;;13.60;;
50301;SDS011;36550;50.472;19.744;2023-09-19T01:44:26;18.40;;;15.10;;
50301;SDS011;36550;50.472;19.744;2023-09-19T01:47:28;18.70;;;13.00;;
50301;SDS011;36550;50.472;19.744;2023-09-19T01:50:32;20.00;;;14.10;;
50301;SDS011;36550;50.472;19.744;2023-09-19T01:53:26;20.60;;;13.70;;
50301;SDS011;36550;50.472;19.744;2023-09-19T01:56:16;18.70;;;14.10;;
50301;SDS011;36550;50.472;19.744;2023-09-19T01:59:10;18.40;;;14.00;;
50301;SDS011;36550;50.472;19.744;2023-09-19T02:01:57;20.50;;;15.10;;
50301;SDS011;36550;50.472;19.744;2023-09-19T02:04:43;18.00;;;14.30;;
50301;SDS011;36550;50.472;19.744;2023-09-19T02:07:28;22.70;;;14.10;;
50301;SDS011;36550;50.472;19.744;2023-09-19T02:10:13;17.90;;;14.20;;
50301;SDS011;36550;50.472;19.744;2023-09-19T02:12:57;22.70;;;14.60;;
50301;SDS011;36550;50.472;19.744;2023-09-19T02:15:43;19.70;;;14.00;;
50301;SDS011;36550;50.472;19.744;2023-09-19T02:18:33;16.70;;;13.20;;
50301;SDS011;36550;50.472;19.744;2023-09-19T02:21:18;19.70;;;13.80;;
50301;SDS011;36550;50.472;19.744;2023-09-19T02:24:05;18.60;;;14.00;;
50301;SDS011;36550;50.472;19.744;2023-09-19T02:26:52;19.50;;;13.50;;
50301;SDS011;36550;50.472;19.744;2023-09-19T02:29:38;17.90;;;14.10;;
50301;SDS011;36550;50.472;19.744;2023-09-19T02:32:23;20.00;;;14.00;;
50301;SDS011;36550;50.472;19.744;2023-09-19T02:35:07;16.60;;;11.80;;
50301;SDS011;36550;50.472;19.744;2023-09-19T02:37:54;15.20;;;10.90;;
50301;SDS011;36550;50.472;19.744;2023-09-19T02:40:39;14.00;;;10.60;;
50301;SDS011;36550;50.472;19.744;2023-09-19T02:43:23;16.20;;;10.30;;
50301;SDS011;36550;50.472;19.744;2023-09-19T02:46:07;12.40;;;9.90;;
50301;SDS011;36550;50.472;19.744;2023-09-19T02:48:51;11.70;;;9.40;;
50301;SDS011;36550;50.472;19.744;2023-09-19T02:51:35;12.60;;;9.30;;
50301;SDS011;36550;50.472;19.744;2023-09-19T02:54:19;14.00;;;9.20;;
50301;SDS011;36550;50.472;19.744;2023-09-19T02:57:04;12.30;;;8.70;;
50301;SDS011;36550;50.472;19.744;2023-09-19T02:59:50;11.40;;;9.40;;
50301;SDS011;36550;50.472;19.744;2023-09-19T03:02:34;13.70;;;9.70;;
50301;SDS011;36550;50.472;19.744;2023-09-19T03:05:19;11.70;;;10.50;;
50301;SDS011;36550;50.472;19.744;2023-09-19T03:08:04;13.20;;;10.00;;
50301;SDS011;36550;50.472;19.744;2023-09-19T03:13:34;12.80;;;9.60;;
50301;SDS011;36550;50.472;19.744;2023-09-19T03:16:20;15.10;;;11.10;;
50301;SDS011;36550;50.472;19.744;2023-09-19T03:19:08;17.80;;;11.90;;
50301;SDS011;36550;50.472;19.744;2023-09-19T03:21:55;13.40;;;11.00;;
50301;SDS011;36550;50.472;19.744;2023-09-19T03:24:41;13.30;;;10.20;;
50301;SDS011;36550;50.472;19.744;2023-09-19T03:27:27;16.10;;;10.80;;
50301;SDS011;36550;50.472;19.744;2023-09-19T03:30:11;15.60;;;10.50;;
50301;SDS011;36550;50.472;19.744;2023-09-19T03:35:41;18.70;;;9.90;;
50301;SDS011;36550;50.472;19.744;2023-09-19T03:38:25;13.80;;;10.80;;
50301;SDS011;36550;50.472;19.744;2023-09-19T03:41:09;14.60;;;11.60;;
50301;SDS011;36550;50.472;19.744;2023-09-19T03:43:58;16.10;;;12.00;;
50301;SDS011;36550;50.472;19.744;2023-09-19T03:46:41;14.00;;;11.60;;
50301;SDS011;36550;50.472;19.744;2023-09-19T03:49:26;15.90;;;10.90;;
50301;SDS011;36550;50.472;19.744;2023-09-19T03:52:10;15.10;;;10.90;;
50301;SDS011;36550;50.472;19.744;2023-09-19T03:54:54;17.10;;;10.60;;
50301;SDS011;36550;50.472;19.744;2023-09-19T03:57:38;20.20;;;11.60;;
50301;SDS011;36550;50.472;19.744;2023-09-19T04:00:22;14.80;;;11.60;;
50301;SDS011;36550;50.472;19.744;2023-09-19T04:03:08;16.40;;;11.50;;
50301;SDS011;36550;50.472;19.744;2023-09-19T04:05:52;15.40;;;12.30;;
50301;SDS011;36550;50.472;19.744;2023-09-19T04:08:36;13.90;;;11.80;;
50301;SDS011;36550;50.472;19.744;2023-09-19T04:11:20;14.70;;;10.90;;
50301;SDS011;36550;50.472;19.744;2023-09-19T04:14:04;13.50;;;10.60;;
50301;SDS011;36550;50.472;19.744;2023-09-19T04:16:48;13.10;;;11.30;;
50301;SDS011;36550;50.472;19.744;2023-09-19T04:19:32;12.50;;;10.00;;
50301;SDS011;36550;50.472;19.744;2023-09-19T04:22:16;14.10;;;10.00;;
50301;SDS011;36550;50.472;19.744;2023-09-19T04:25:00;12.80;;;9.90;;
50301;SDS011;36550;50.472;19.744;2023-09-19T04:27:44;15.40;;;11.20;;
50301;SDS011;36550;50.472;19.744;2023-09-19T04:30:28;15.00;;;11.40;;
50301;SDS011;36550;50.472;19.744;2023-09-19T04:33:12;15.50;;;11.80;;
50301;SDS011;36550;50.472;19.744;2023-09-19T04:38:42;17.20;;;11.90;;
50301;SDS011;36550;50.472;19.744;2023-09-19T04:41:26;17.40;;;12.10;;
50301;SDS011;36550;50.472;19.744;2023-09-19T04:44:10;18.20;;;10.80;;
50301;SDS011;36550;50.472;19.744;2023-09-19T04:46:54;14.90;;;11.20;;
50301;SDS011;36550;50.472;19.744;2023-09-19T04:49:38;16.90;;;11.80;;
50301;SDS011;36550;50.472;19.744;2023-09-19T04:52:23;19.70;;;12.70;;
50301;SDS011;36550;50.472;19.744;2023-09-19T04:58:01;19.70;;;13.30;;
50301;SDS011;36550;50.472;19.744;2023-09-19T05:00:46;21.90;;;13.80;;
50301;SDS011;36550;50.472;19.744;2023-09-19T05:03:30;24.30;;;13.60;;
50301;SDS011;36550;50.472;19.744;2023-09-19T05:06:15;25.00;;;13.80;;
50301;SDS011;36550;50.472;19.744;2023-09-19T05:08:59;19.10;;;12.10;;
50301;SDS011;36550;50.472;19.744;2023-09-19T05:11:44;17.40;;;10.00;;
50301;SDS011;36550;50.472;19.744;2023-09-19T05:14:28;19.10;;;12.50;;
50301;SDS011;36550;50.472;19.744;2023-09-19T05:17:13;22.50;;;12.50;;
50301;SDS011;36550;50.472;19.744;2023-09-19T05:19:57;17.10;;;12.20;;
50301;SDS011;36550;50.472;19.744;2023-09-19T05:22:42;14.80;;;10.70;;
50301;SDS011;36550;50.472;19.744;2023-09-19T05:25:26;22.80;;;11.00;;
50301;SDS011;36550;50.472;19.744;2023-09-19T05:28:13;9.90;;;8.10;;
50301;SDS011;36550;50.472;19.744;2023-09-19T05:31:00;11.30;;;7.70;;
50301;SDS011;36550;50.472;19.744;2023-09-19T05:33:46;11.30;;;8.00;;
50301;SDS011;36550;50.472;19.744;2023-09-19T05:36:30;9.00;;;8.10;;
50301;SDS011;36550;50.472;19.744;2023-09-19T05:39:14;11.80;;;9.10;;
50301;SDS011;36550;50.472;19.744;2023-09-19T05:41:58;13.00;;;9.40;;
50301;SDS011;36550;50.472;19.744;2023-09-19T05:44:43;12.30;;;9.40;;
50301;SDS011;36550;50.472;19.744;2023-09-19T05:47:27;13.80;;;9.10;;
50301;SDS011;36550;50.472;19.744;2023-09-19T05:50:11;10.10;;;7.40;;
50301;SDS011;36550;50.472;19.744;2023-09-19T05:52:56;8.40;;;7.10;;
50301;SDS011;36550;50.472;19.744;2023-09-19T05:55:40;8.70;;;6.90;;
50301;SDS011;36550;50.472;19.744;2023-09-19T05:58:25;8.30;;;6.90;;
50301;SDS011;36550;50.472;19.744;2023-09-19T06:01:09;12.50;;;7.60;;
50301;SDS011;36550;50.472;19.744;2023-09-19T06:03:53;8.00;;;6.60;;
50301;SDS011;36550;50.472;19.744;2023-09-19T06:06:38;7.80;;;6.80;;
50301;SDS011;36550;50.472;19.744;2023-09-19T06:09:23;12.20;;;7.10;;
50301;SDS011;36550;50.472;19.744;2023-09-19T06:12:08;16.10;;;8.30;;
50301;SDS011;36550;50.472;19.744;2023-09-19T06:14:52;13.60;;;9.10;;
50301;SDS011;36550;50.472;19.744;2023-09-19T06:17:36;12.00;;;9.50;;
50301;SDS011;36550;50.472;19.744;2023-09-19T06:20:23;12.00;;;9.10;;
50301;SDS011;36550;50.472;19.744;2023-09-19T06:23:09;11.10;;;8.90;;
50301;SDS011;36550;50.472;19.744;2023-09-19T06:25:53;12.70;;;9.70;;
50301;SDS011;36550;50.472;19.744;2023-09-19T06:28:38;14.80;;;9.40;;
50301;SDS011;36550;50.472;19.744;2023-09-19T06:31:22;13.80;;;9.40;;
50301;SDS011;36550;50.472;19.744;2023-09-19T06:34:10;16.70;;;9.40;;
50301;SDS011;36550;50.472;19.744;2023-09-19T06:36:54;14.80;;;8.30;;
50301;SDS011;36550;50.472;19.744;2023-09-19T06:39:39;11.50;;;8.60;;
50301;SDS011;36550;50.472;19.744;2023-09-19T06:42:23;14.80;;;9.30;;
50301;SDS011;36550;50.472;19.744;2023-09-19T06:45:07;13.00;;;10.00;;
50301;SDS011;36550;50.472;19.744;2023-09-19T06:47:55;15.40;;;11.10;;
50301;SDS011;36550;50.472;19.744;2023-09-19T06:50:41;16.10;;;11.70;;
50301;SDS011;36550;50.472;19.744;2023-09-19T06:53:27;12.40;;;9.60;;
50301;SDS011;36550;50.472;19.744;2023-09-19T06:56:15;17.90;;;11.10;;
50301;SDS011;36550;50.472;19.744;2023-09-19T06:58:59;15.10;;;11.40;;
50301;SDS011;36550;50.472;19.744;2023-09-19T07:01:43;16.70;;;11.90;;
50301;SDS011;36550;50.472;19.744;2023-09-19T07:04:28;18.70;;;13.40;;
50301;SDS011;36550;50.472;19.744;2023-09-19T07:07:12;21.10;;;14.00;;
50301;SDS011;36550;50.472;19.744;2023-09-19T07:09:57;19.30;;;14.60;;
50301;SDS011;36550;50.472;19.744;2023-09-19T07:12:41;21.60;;;14.90;;
50301;SDS011;36550;50.472;19.744;2023-09-19T07:15:28;22.50;;;16.10;;
50301;SDS011;36550;50.472;19.744;2023-09-19T07:18:15;26.00;;;16.80;;
50301;SDS011;36550;50.472;19.744;2023-09-19T07:21:00;30.70;;;19.80;;
50301;SDS011;36550;50.472;19.744;2023-09-19T07:23:48;26.20;;;19.70;;
50301;SDS011;36550;50.472;19.744;2023-09-19T07:26:34;30.70;;;20.50;;
50301;SDS011;36550;50.472;19.744;2023-09-19T07:29:18;26.80;;;19.50;;
50301;SDS011;36550;50.472;19.744;2023-09-19T07:32:02;28.60;;;20.90;;
50301;SDS011;36550;50.472;19.744;2023-09-19T07:34:46;27.20;;;19.60;;
50301;SDS011;36550;50.472;19.744;2023-09-19T07:37:30;26.80;;;19.40;;
50301;SDS011;36550;50.472;19.744;2023-09-19T07:40:17;27.10;;;19.10;;
50301;SDS011;36550;50.472;19.744;2023-09-19T07:43:02;31.70;;;20.60;;
50301;SDS011;36550;50.472;19.744;2023-09-19T07:45:47;24.10;;;19.40;;
50301;SDS011;36550;50.472;19.744;2023-09-19T07:48:31;29.10;;;20.70;;
50301;SDS011;36550;50.472;19.744;2023-09-19T07:51:16;25.20;;;19.90;;
50301;SDS011;36550;50.472;19.744;2023-09-19T07:54:00;23.50;;;19.00;;
50301;SDS011;36550;50.472;19.744;2023-09-19T07:56:44;26.70;;;20.00;;
50301;SDS011;36550;50.472;19.744;2023-09-19T07:59:29;28.70;;;20.50;;
50301;SDS011;36550;50.472;19.744;2023-09-19T08:02:13;23.80;;;18.80;;
50301;SDS011;36550;50.472;19.744;2023-09-19T08:05:02;28.50;;;19.00;;
50301;SDS011;36550;50.472;19.744;2023-09-19T08:07:49;23.60;;;17.70;;
50301;SDS011;36550;50.472;19.744;2023-09-19T08:10:34;23.70;;;17.30;;
50301;SDS011;36550;50.472;19.744;2023-09-19T08:13:19;23.40;;;17.40;;
50301;SDS011;36550;50.472;19.744;2023-09-19T08:16:05;26.70;;;16.00;;
50301;SDS011;36550;50.472;19.744;2023-09-19T08:18:49;20.90;;;15.50;;
50301;SDS011;36550;50.472;19.744;2023-09-19T08:21:37;16.80;;;12.60;;
50301;SDS011;36550;50.472;19.744;2023-09-19T08:24:21;20.50;;;13.30;;
50301;SDS011;36550;50.472;19.744;2023-09-19T08:27:05;20.60;;;13.00;;
50301;SDS011;36550;50.472;19.744;2023-09-19T08:29:53;21.40;;;14.40;;
50301;SDS011;36550;50.472;19.744;2023-09-19T08:32:37;28.60;;;20.50;;
50301;SDS011;36550;50.472;19.744;2023-09-19T08:35:21;31.00;;;23.30;;
50301;SDS011;36550;50.472;19.744;2023-09-19T08:38:05;20.30;;;14.60;;
50301;SDS011;36550;50.472;19.744;2023-09-19T08:40:50;20.60;;;15.20;;
50301;SDS011;36550;50.472;19.744;2023-09-19T08:43:34;18.40;;;14.20;;
50301;SDS011;36550;50.472;19.744;2023-09-19T08:46:18;20.50;;;14.60;;
50301;SDS011;36550;50.472;19.744;2023-09-19T08:49:04;16.40;;;13.60;;
50301;SDS011;36550;50.472;19.744;2023-09-19T08:51:54;19.50;;;14.60;;
50301;SDS011;36550;50.472;19.744;2023-09-19T08:54:51;17.10;;;14.10;;
50301;SDS011;36550;50.472;19.744;2023-09-19T08:57:37;21.80;;;14.30;;
50301;SDS011;36550;50.472;19.744;2023-09-19T09:00:27;20.00;;;13.50;;
50301;SDS011;36550;50.472;19.744;2023-09-19T09:03:12;20.80;;;14.00;;
50301;SDS011;36550;50.472;19.744;2023-09-19T09:05:58;20.00;;;13.10;;
50301;SDS011;36550;50.472;19.744;2023-09-19T09:08:43;17.60;;;13.20;;
50301;SDS011;36550;50.472;19.744;2023-09-19T09:11:28;15.90;;;12.20;;
50301;SDS011;36550;50.472;19.744;2023-09-19T09:14:13;18.10;;;12.50;;
50301;SDS011;36550;50.472;19.744;2023-09-19T09:16:57;19.10;;;12.30;;
50301;SDS011;36550;50.472;19.744;2023-09-19T09:19:42;17.80;;;12.30;;
50301;SDS011;36550;50.472;19.744;2023-09-19T09:22:27;16.50;;;11.70;;
50301;SDS011;36550;50.472;19.744;2023-09-19T09:25:11;22.70;;;12.90;;
50301;SDS011;36550;50.472;19.744;2023-09-19T09:27:59;18.80;;;12.20;;
50301;SDS011;36550;50.472;19.744;2023-09-19T09:30:45;20.80;;;12.50;;
50301;SDS011;36550;50.472;19.744;2023-09-19T09:33:30;25.90;;;13.50;;
50301;SDS011;36550;50.472;19.744;2023-09-19T09:36:14;20.10;;;12.30;;
50301;SDS011;36550;50.472;19.744;2023-09-19T09:38:58;26.80;;;12.80;;
50301;SDS011;36550;50.472;19.744;2023-09-19T09:41:43;28.10;;;14.30;;
50301;SDS011;36550;50.472;19.744;2023-09-19T09:44:27;25.70;;;12.80;;
50301;SDS011;36550;50.472;19.744;2023-09-19T09:47:15;16.80;;;10.60;;
50301;SDS011;36550;50.472;19.744;2023-09-19T09:50:26;11.30;;;7.00;;
50301;SDS011;36550;50.472;19.744;2023-09-19T09:53:34;14.90;;;7.20;;
50301;SDS011;36550;50.472;19.744;2023-09-19T09:56:18;13.10;;;7.80;;
50301;SDS011;36550;50.472;19.744;2023-09-19T09:59:01;17.30;;;8.30;;
50301;SDS011;36550;50.472;19.744;2023-09-19T10:01:47;14.30;;;6.80;;
50301;SDS011;36550;50.472;19.744;2023-09-19T10:04:34;10.20;;;6.00;;
50301;SDS011;36550;50.472;19.744;2023-09-19T10:07:24;9.80;;;6.20;;
50301;SDS011;36550;50.472;19.744;2023-09-19T10:10:10;9.10;;;5.00;;
50301;SDS011;36550;50.472;19.744;2023-09-19T10:13:00;10.40;;;5.40;;
50301;SDS011;36550;50.472;19.744;2023-09-19T10:15:47;13.30;;;5.70;;
50301;SDS011;36550;50.472;19.744;2023-09-19T10:18:34;11.20;;;6.00;;
50301;SDS011;36550;50.472;19.744;2023-09-19T10:21:21;17.00;;;7.00;;
50301;SDS011;36550;50.472;19.744;2023-09-19T10:24:05;12.10;;;6.60;;
50301;SDS011;36550;50.472;19.744;2023-09-19T10:26:52;14.10;;;7.20;;
50301;SDS011;36550;50.472;19.744;2023-09-19T10:29:39;10.60;;;5.80;;
50301;SDS011;36550;50.472;19.744;2023-09-19T10:32:23;13.50;;;6.20;;
50301;SDS011;36550;50.472;19.744;2023-09-19T10:35:14;14.00;;;5.90;;
50301;SDS011;36550;50.472;19.744;2023-09-19T10:38:02;10.30;;;6.10;;
50301;SDS011;36550;50.472;19.744;2023-09-19T10:40:50;10.70;;;6.30;;
50301;SDS011;36550;50.472;19.744;2023-09-19T10:43:36;9.70;;;5.60;;
50301;SDS011;36550;50.472;19.744;2023-09-19T10:46:23;10.00;;;5.70;;
50301;SDS011;36550;50.472;19.744;2023-09-19T10:49:09;9.20;;;5.20;;
50301;SDS011;36550;50.472;19.744;2023-09-19T10:51:55;8.90;;;5.80;;
50301;SDS011;36550;50.472;19.744;2023-09-19T10:54:43;7.90;;;5.50;;
50301;SDS011;36550;50.472;19.744;2023-09-19T10:57:33;10.00;;;5.60;;
50301;SDS011;36550;50.472;19.744;2023-09-19T11:00:17;8.90;;;5.70;;
50301;SDS011;36550;50.472;19.744;2023-09-19T11:03:17;7.80;;;5.20;;
50301;SDS011;36550;50.472;19.744;2023-09-19T11:06:11;11.70;;;6.00;;
50301;SDS011;36550;50.472;19.744;2023-09-19T11:09:03;9.10;;;5.50;;
50301;SDS011;36550;50.472;19.744;2023-09-19T11:11:54;9.50;;;5.50;;
50301;SDS011;36550;50.472;19.744;2023-09-19T11:14:39;7.60;;;5.40;;
50301;SDS011;36550;50.472;19.744;2023-09-19T11:17:31;11.90;;;6.50;;
50301;SDS011;36550;50.472;19.744;2023-09-19T11:20:25;10.00;;;5.90;;
50301;SDS011;36550;50.472;19.744;2023-09-19T11:26:01;11.00;;;5.10;;
50301;SDS011;36550;50.472;19.744;2023-09-19T11:28:46;7.50;;;4.90;;
50301;SDS011;36550;50.472;19.744;2023-09-19T11:31:43;9.30;;;4.90;;
50301;SDS011;36550;50.472;19.744;2023-09-19T11:34:41;8.30;;;5.10;;
50301;SDS011;36550;50.472;19.744;2023-09-19T11:40:16;8.50;;;4.80;;
50301;SDS011;36550;50.472;19.744;2023-09-19T11:43:00;7.60;;;4.70;;
50301;SDS011;36550;50.472;19.744;2023-09-19T11:46:14;9.90;;;4.80;;
50301;SDS011;36550;50.472;19.744;2023-09-19T11:49:06;10.40;;;4.80;;
50301;SDS011;36550;50.472;19.744;2023-09-19T11:51:57;8.30;;;5.10;;
50301;SDS011;36550;50.472;19.744;2023-09-19T11:54:53;8.80;;;5.00;;
50301;SDS011;36550;50.472;19.744;2023-09-19T11:57:41;11.60;;;5.10;;
50301;SDS011;36550;50.472;19.744;2023-09-19T12:00:25;13.00;;;4.90;;
50301;SDS011;36550;50.472;19.744;2023-09-19T12:03:11;5.00;;;3.50;;
50301;SDS011;36550;50.472;19.744;2023-09-19T12:05:58;11.60;;;4.60;;
50301;SDS011;36550;50.472;19.744;2023-09-19T12:11:30;6.80;;;3.70;;
50301;SDS011;36550;50.472;19.744;2023-09-19T12:14:22;8.30;;;3.20;;
50301;SDS011;36550;50.472;19.744;2023-09-19T12:17:08;4.30;;;2.70;;
50301;SDS011;36550;50.472;19.744;2023-09-19T12:19:53;6.50;;;2.60;;
50301;SDS011;36550;50.472;19.744;2023-09-19T12:22:42;4.40;;;2.30;;
50301;SDS011;36550;50.472;19.744;2023-09-19T12:25:41;4.90;;;2.30;;
50301;SDS011;36550;50.472;19.744;2023-09-19T12:28:30;4.30;;;2.30;;
50301;SDS011;36550;50.472;19.744;2023-09-19T12:31:15;4.60;;;2.90;;
50301;SDS011;36550;50.472;19.744;2023-09-19T12:34:02;4.30;;;2.30;;
50301;SDS011;36550;50.472;19.744;2023-09-19T12:36:47;6.00;;;2.60;;
50301;SDS011;36550;50.472;19.744;2023-09-19T12:39:31;6.90;;;2.90;;
50301;SDS011;36550;50.472;19.744;2023-09-19T12:42:16;3.90;;;2.20;;
50301;SDS011;36550;50.472;19.744;2023-09-19T12:45:04;4.80;;;2.50;;
50301;SDS011;36550;50.472;19.744;2023-09-19T12:48:38;5.10;;;2.30;;
50301;SDS011;36550;50.472;19.744;2023-09-19T12:51:26;4.80;;;2.20;;
50301;SDS011;36550;50.472;19.744;2023-09-19T12:54:18;7.60;;;2.30;;
50301;SDS011;36550;50.472;19.744;2023-09-19T12:57:03;5.20;;;2.10;;
50301;SDS011;36550;50.472;19.744;2023-09-19T12:59:51;4.60;;;2.30;;
50301;SDS011;36550;50.472;19.744;2023-09-19T13:02:36;6.80;;;2.10;;
50301;SDS011;36550;50.472;19.744;2023-09-19T13:05:20;5.20;;;2.40;;
50301;SDS011;36550;50.472;19.744;2023-09-19T13:08:17;5.50;;;2.20;;
50301;SDS011;36550;50.472;19.744;2023-09-19T13:11:17;2.90;;;1.90;;
50301;SDS011;36550;50.472;19.744;2023-09-19T13:14:23;5.10;;;2.10;;
50301;SDS011;36550;50.472;19.744;2023-09-19T13:17:11;3.30;;;1.90;;
50301;SDS011;36550;50.472;19.744;2023-09-19T13:20:03;7.60;;;2.60;;
50301;SDS011;36550;50.472;19.744;2023-09-19T13:22:50;7.10;;;2.80;;
50301;SDS011;36550;50.472;19.744;2023-09-19T13:25:38;4.50;;;2.90;;
50301;SDS011;36550;50.472;19.744;2023-09-19T13:28:23;4.70;;;3.20;;
50301;SDS011;36550;50.472;19.744;2023-09-19T13:31:09;6.30;;;3.00;;
50301;SDS011;36550;50.472;19.744;2023-09-19T13:33:54;4.90;;;2.90;;
50301;SDS011;36550;50.472;19.744;2023-09-19T13:36:38;5.70;;;2.60;;
50301;SDS011;36550;50.472;19.744;2023-09-19T13:39:23;7.30;;;3.00;;
50301;SDS011;36550;50.472;19.744;2023-09-19T13:42:08;4.30;;;2.70;;
50301;SDS011;36550;50.472;19.744;2023-09-19T13:44:55;3.30;;;2.40;;
50301;SDS011;36550;50.472;19.744;2023-09-19T13:47:40;5.40;;;2.50;;
50301;SDS011;36550;50.472;19.744;2023-09-19T13:50:24;6.00;;;4.00;;
50301;SDS011;36550;50.472;19.744;2023-09-19T13:53:10;18.70;;;10.80;;
50301;SDS011;36550;50.472;19.744;2023-09-19T13:55:55;14.50;;;7.40;;
50301;SDS011;36550;50.472;19.744;2023-09-19T13:58:40;28.10;;;12.60;;
50301;SDS011;36550;50.472;19.744;2023-09-19T14:01:25;37.40;;;16.90;;
50301;SDS011;36550;50.472;19.744;2023-09-19T14:04:10;13.80;;;6.50;;
50301;SDS011;36550;50.472;19.744;2023-09-19T14:06:55;36.50;;;21.10;;
50301;SDS011;36550;50.472;19.744;2023-09-19T14:09:41;12.00;;;5.30;;
50301;SDS011;36550;50.472;19.744;2023-09-19T14:12:25;9.80;;;4.80;;
50301;SDS011;36550;50.472;19.744;2023-09-19T14:15:10;14.60;;;6.70;;
50301;SDS011;36550;50.472;19.744;2023-09-19T14:17:54;9.90;;;5.00;;
50301;SDS011;36550;50.472;19.744;2023-09-19T14:20:44;7.50;;;3.80;;
50301;SDS011;36550;50.472;19.744;2023-09-19T14:23:28;9.50;;;4.00;;
50301;SDS011;36550;50.472;19.744;2023-09-19T14:26:12;6.90;;;3.40;;
50301;SDS011;36550;50.472;19.744;2023-09-19T14:28:57;6.30;;;3.50;;
50301;SDS011;36550;50.472;19.744;2023-09-19T14:31:41;4.70;;;3.20;;
50301;SDS011;36550;50.472;19.744;2023-09-19T14:34:25;7.40;;;3.40;;
50301;SDS011;36550;50.472;19.744;2023-09-19T14:37:09;5.20;;;3.30;;
50301;SDS011;36550;50.472;19.744;2023-09-19T14:39:55;10.90;;;4.80;;
50301;SDS011;36550;50.472;19.744;2023-09-19T14:42:39;6.40;;;3.70;;
50301;SDS011;36550;50.472;19.744;2023-09-19T14:45:23;13.30;;;5.70;;
50301;SDS011;36550;50.472;19.744;2023-09-19T14:48:09;7.60;;;3.30;;
50301;SDS011;36550;50.472;19.744;2023-09-19T14:50:53;4.90;;;3.30;;
50301;SDS011;36550;50.472;19.744;2023-09-19T14:53:39;5.50;;;3.20;;
50301;SDS011;36550;50.472;19.744;2023-09-19T14:56:24;6.00;;;3.20;;
50301;SDS011;36550;50.472;19.744;2023-09-19T14:59:09;6.60;;;3.50;;
50301;SDS011;36550;50.472;19.744;2023-09-19T15:01:54;9.50;;;3.80;;
50301;SDS011;36550;50.472;19.744;2023-09-19T15:04:38;5.20;;;3.20;;
50301;SDS011;36550;50.472;19.744;2023-09-19T15:07:25;6.40;;;2.90;;
50301;SDS011;36550;50.472;19.744;2023-09-19T15:10:10;4.50;;;3.20;;
50301;SDS011;36550;50.472;19.744;2023-09-19T15:12:57;5.60;;;2.70;;
50301;SDS011;36550;50.472;19.744;2023-09-19T15:15:40;5.50;;;2.90;;
50301;SDS011;36550;50.472;19.744;2023-09-19T15:18:26;4.80;;;3.00;;
50301;SDS011;36550;50.472;19.744;2023-09-19T15:21:11;4.80;;;3.20;;
50301;SDS011;36550;50.472;19.744;2023-09-19T15:26:40;5.70;;;3.00;;
50301;SDS011;36550;50.472;19.744;2023-09-19T15:29:27;7.40;;;3.20;;
50301;SDS011;36550;50.472;19.744;2023-09-19T15:32:11;3.70;;;2.80;;
50301;SDS011;36550;50.472;19.744;2023-09-19T15:34:55;6.60;;;2.90;;
50301;SDS011;36550;50.472;19.744;2023-09-19T15:37:39;5.80;;;2.70;;
50301;SDS011;36550;50.472;19.744;2023-09-19T15:40:25;6.00;;;3.00;;
50301;SDS011;36550;50.472;19.744;2023-09-19T15:43:10;6.50;;;3.10;;
50301;SDS011;36550;50.472;19.744;2023-09-19T15:45:54;7.20;;;3.00;;
50301;SDS011;36550;50.472;19.744;2023-09-19T15:48:38;7.60;;;3.00;;
50301;SDS011;36550;50.472;19.744;2023-09-19T15:51:23;6.10;;;3.20;;
50301;SDS011;36550;50.472;19.744;2023-09-19T15:54:12;4.80;;;2.80;;
50301;SDS011;36550;50.472;19.744;2023-09-19T15:56:57;5.00;;;3.00;;
50301;SDS011;36550;50.472;19.744;2023-09-19T16:02:28;7.20;;;2.90;;
50301;SDS011;36550;50.472;19.744;2023-09-19T16:05:12;4.60;;;2.50;;
50301;SDS011;36550;50.472;19.744;2023-09-19T16:07:56;5.30;;;2.50;;
50301;SDS011;36550;50.472;19.744;2023-09-19T16:10:40;4.70;;;2.60;;
50301;SDS011;36550;50.472;19.744;2023-09-19T16:13:24;7.90;;;2.70;;
50301;SDS011;36550;50.472;19.744;2023-09-19T16:16:09;4.00;;;2.50;;
50301;SDS011;36550;50.472;19.744;2023-09-19T16:18:56;7.30;;;3.00;;
50301;SDS011;36550;50.472;19.744;2023-09-19T16:21:44;7.80;;;2.80;;
50301;SDS011;36550;50.472;19.744;2023-09-19T16:24:27;7.30;;;2.90;;
50301;SDS011;36550;50.472;19.744;2023-09-19T16:27:12;4.90;;;2.70;;
50301;SDS011;36550;50.472;19.744;2023-09-19T16:29:58;7.30;;;2.70;;
50301;SDS011;36550;50.472;19.744;2023-09-19T16:32:43;3.90;;;2.40;;
50301;SDS011;36550;50.472;19.744;2023-09-19T16:35:27;4.60;;;2.50;;
50301;SDS011;36550;50.472;19.744;2023-09-19T16:38:13;6.30;;;2.20;;
50301;SDS011;36550;50.472;19.744;2023-09-19T16:40:57;5.80;;;2.20;;
50301;SDS011;36550;50.472;19.744;2023-09-19T16:43:42;4.50;;;2.30;;